sensor_id;sensor_type;location;lat;lon;timestamp;P1;durP1;ratioP1;P2;durP2;ratioP2
25359;SDS011;13311;51.386;0.016;2024-03-02T00:04:05;6.70;;;1.10;;
25359;SDS011;13311;51.386;0.016;2024-03-02T00:09:08;2.55;;;1.13;;
25359;SDS011;13311;51.386;0.016;2024-03-02T00:14:12;4.22;;;1.42;;
25359;SDS011;13311;51.386;0.016;2024-03-02T00:19:13;4.85;;;1.02;;
25359;SDS011;13311;51.386;0.016;2024-03-02T00:29:24;8.07;;;1.63;;
25359;SDS011;13311;51.386;0.016;2024-03-02T00:34:26;6.13;;;1.48;;
25359;SDS011;13311;51.386;0.016;2024-03-02T00:39:27;5.63;;;1.60;;
25359;SDS011;13311;51.386;0.016;2024-03-02T00:44:28;3.85;;;1.02;;
25359;SDS011;13311;51.386;0.016;2024-03-02T00:49:34;8.48;;;1.65;;
25359;SDS011;13311;51.386;0.016;2024-03-02T00:54:35;6.93;;;2.00;;
25359;SDS011;13311;51.386;0.016;2024-03-02T00:59:35;13.98;;;1.40;;
25359;SDS011;13311;51.386;0.016;2024-03-02T01:04:36;7.68;;;1.45;;
25359;SDS011;13311;51.386;0.016;2024-03-02T01:09:37;15.35;;;2.20;;
25359;SDS011;13311;51.386;0.016;2024-03-02T01:14:38;6.50;;;2.05;;
25359;SDS011;13311;51.386;0.016;2024-03-02T01:19:38;10.48;;;2.63;;
25359;SDS011;13311;51.386;0.016;2024-03-02T01:24:40;10.38;;;2.20;;
25359;SDS011;13311;51.386;0.016;2024-03-02T01:29:42;7.18;;;1.38;;
25359;SDS011;13311;51.386;0.016;2024-03-02T01:34:43;6.72;;;2.00;;
25359;SDS011;13311;51.386;0.016;2024-03-02T01:39:44;6.68;;;1.63;;
25359;SDS011;13311;51.386;0.016;2024-03-02T01:44:44;7.75;;;2.20;;
25359;SDS011;13311;51.386;0.016;2024-03-02T01:49:45;10.05;;;2.25;;
25359;SDS011;13311;51.386;0.016;2024-03-02T01:54:46;9.88;;;2.00;;
25359;SDS011;13311;51.386;0.016;2024-03-02T01:59:47;8.90;;;2.45;;
25359;SDS011;13311;51.386;0.016;2024-03-02T02:04:48;11.10;;;2.95;;
25359;SDS011;13311;51.386;0.016;2024-03-02T02:09:48;10.52;;;2.13;;
25359;SDS011;13311;51.386;0.016;2024-03-02T02:14:49;9.32;;;2.33;;
25359;SDS011;13311;51.386;0.016;2024-03-02T02:19:50;14.07;;;2.00;;
25359;SDS011;13311;51.386;0.016;2024-03-02T02:24:51;12.00;;;2.33;;
25359;SDS011;13311;51.386;0.016;2024-03-02T02:29:51;10.95;;;2.45;;
25359;SDS011;13311;51.386;0.016;2024-03-02T02:34:52;14.02;;;3.63;;
25359;SDS011;13311;51.386;0.016;2024-03-02T02:39:53;10.18;;;1.95;;
25359;SDS011;13311;51.386;0.016;2024-03-02T02:44:54;20.20;;;2.97;;
25359;SDS011;13311;51.386;0.016;2024-03-02T02:49:54;11.20;;;2.30;;
25359;SDS011;13311;51.386;0.016;2024-03-02T02:54:55;16.95;;;2.00;;
25359;SDS011;13311;51.386;0.016;2024-03-02T02:59:56;12.38;;;3.10;;
25359;SDS011;13311;51.386;0.016;2024-03-02T03:04:57;11.98;;;2.55;;
25359;SDS011;13311;51.386;0.016;2024-03-02T03:09:57;6.47;;;1.83;;
25359;SDS011;13311;51.386;0.016;2024-03-02T03:14:58;11.02;;;2.45;;
25359;SDS011;13311;51.386;0.016;2024-03-02T03:20:00;18.83;;;2.67;;
25359;SDS011;13311;51.386;0.016;2024-03-02T03:25:02;17.70;;;3.00;;
25359;SDS011;13311;51.386;0.016;2024-03-02T03:30:04;11.82;;;1.90;;
25359;SDS011;13311;51.386;0.016;2024-03-02T03:35:06;14.07;;;2.45;;
25359;SDS011;13311;51.386;0.016;2024-03-02T03:40:07;23.58;;;3.20;;
25359;SDS011;13311;51.386;0.016;2024-03-02T03:45:11;15.68;;;2.88;;
25359;SDS011;13311;51.386;0.016;2024-03-02T03:50:12;17.30;;;3.22;;
25359;SDS011;13311;51.386;0.016;2024-03-02T03:55:13;25.38;;;3.72;;
25359;SDS011;13311;51.386;0.016;2024-03-02T04:00:14;12.27;;;2.60;;
25359;SDS011;13311;51.386;0.016;2024-03-02T04:05:15;12.30;;;3.65;;
25359;SDS011;13311;51.386;0.016;2024-03-02T04:10:16;12.35;;;2.88;;
25359;SDS011;13311;51.386;0.016;2024-03-02T04:15:17;17.48;;;3.25;;
25359;SDS011;13311;51.386;0.016;2024-03-02T04:20:18;14.73;;;3.08;;
25359;SDS011;13311;51.386;0.016;2024-03-02T04:25:19;10.32;;;2.85;;
25359;SDS011;13311;51.386;0.016;2024-03-02T04:30:20;19.92;;;3.20;;
25359;SDS011;13311;51.386;0.016;2024-03-02T04:35:20;18.52;;;4.05;;
25359;SDS011;13311;51.386;0.016;2024-03-02T04:40:21;19.55;;;3.95;;
25359;SDS011;13311;51.386;0.016;2024-03-02T04:45:23;14.40;;;3.30;;
25359;SDS011;13311;51.386;0.016;2024-03-02T04:50:24;13.52;;;3.03;;
25359;SDS011;13311;51.386;0.016;2024-03-02T04:55:24;19.45;;;4.03;;
25359;SDS011;13311;51.386;0.016;2024-03-02T05:00:28;14.45;;;2.97;;
25359;SDS011;13311;51.386;0.016;2024-03-02T05:05:29;14.32;;;3.33;;
25359;SDS011;13311;51.386;0.016;2024-03-02T05:10:29;23.25;;;3.42;;
25359;SDS011;13311;51.386;0.016;2024-03-02T05:15:30;14.95;;;3.03;;
25359;SDS011;13311;51.386;0.016;2024-03-02T05:20:31;17.48;;;4.07;;
25359;SDS011;13311;51.386;0.016;2024-03-02T05:25:34;14.35;;;2.90;;
25359;SDS011;13311;51.386;0.016;2024-03-02T05:30:35;12.82;;;2.60;;
25359;SDS011;13311;51.386;0.016;2024-03-02T05:35:36;16.27;;;2.78;;
25359;SDS011;13311;51.386;0.016;2024-03-02T05:40:36;15.02;;;2.83;;
25359;SDS011;13311;51.386;0.016;2024-03-02T05:45:37;20.75;;;3.22;;
25359;SDS011;13311;51.386;0.016;2024-03-02T05:50:38;20.45;;;3.13;;
25359;SDS011;13311;51.386;0.016;2024-03-02T05:55:38;17.48;;;3.97;;
25359;SDS011;13311;51.386;0.016;2024-03-02T06:00:40;16.60;;;3.00;;
25359;SDS011;13311;51.386;0.016;2024-03-02T06:05:41;16.48;;;3.35;;
25359;SDS011;13311;51.386;0.016;2024-03-02T06:10:41;20.75;;;3.92;;
25359;SDS011;13311;51.386;0.016;2024-03-02T06:15:43;17.00;;;3.40;;
25359;SDS011;13311;51.386;0.016;2024-03-02T06:20:44;17.73;;;3.30;;
25359;SDS011;13311;51.386;0.016;2024-03-02T06:25:44;10.02;;;2.92;;
25359;SDS011;13311;51.386;0.016;2024-03-02T06:30:45;15.25;;;3.20;;
25359;SDS011;13311;51.386;0.016;2024-03-02T06:35:46;16.67;;;3.05;;
25359;SDS011;13311;51.386;0.016;2024-03-02T06:40:46;18.58;;;3.25;;
25359;SDS011;13311;51.386;0.016;2024-03-02T06:45:47;9.95;;;2.80;;
25359;SDS011;13311;51.386;0.016;2024-03-02T06:50:48;16.85;;;2.67;;
25359;SDS011;13311;51.386;0.016;2024-03-02T06:55:50;14.23;;;3.83;;
25359;SDS011;13311;51.386;0.016;2024-03-02T07:00:50;13.45;;;2.95;;
25359;SDS011;13311;51.386;0.016;2024-03-02T07:05:52;13.40;;;2.85;;
25359;SDS011;13311;51.386;0.016;2024-03-02T07:10:53;16.00;;;2.95;;
25359;SDS011;13311;51.386;0.016;2024-03-02T07:15:54;15.80;;;3.78;;
25359;SDS011;13311;51.386;0.016;2024-03-02T07:21:03;9.98;;;2.47;;
25359;SDS011;13311;51.386;0.016;2024-03-02T07:26:04;11.77;;;2.92;;
25359;SDS011;13311;51.386;0.016;2024-03-02T07:31:07;11.82;;;2.60;;
25359;SDS011;13311;51.386;0.016;2024-03-02T07:36:09;12.85;;;3.55;;
25359;SDS011;13311;51.386;0.016;2024-03-02T07:41:10;13.13;;;2.35;;
25359;SDS011;13311;51.386;0.016;2024-03-02T07:46:12;9.95;;;2.28;;
25359;SDS011;13311;51.386;0.016;2024-03-02T07:51:13;14.20;;;2.55;;
25359;SDS011;13311;51.386;0.016;2024-03-02T07:56:14;20.45;;;2.72;;
25359;SDS011;13311;51.386;0.016;2024-03-02T08:01:21;12.30;;;2.50;;
25359;SDS011;13311;51.386;0.016;2024-03-02T08:06:22;11.65;;;2.58;;
25359;SDS011;13311;51.386;0.016;2024-03-02T08:11:23;8.57;;;1.92;;
25359;SDS011;13311;51.386;0.016;2024-03-02T08:16:23;15.15;;;2.72;;
25359;SDS011;13311;51.386;0.016;2024-03-02T08:21:25;15.98;;;2.47;;
25359;SDS011;13311;51.386;0.016;2024-03-02T08:26:26;8.93;;;1.90;;
25359;SDS011;13311;51.386;0.016;2024-03-02T08:31:29;11.15;;;2.25;;
25359;SDS011;13311;51.386;0.016;2024-03-02T08:36:30;10.63;;;2.58;;
25359;SDS011;13311;51.386;0.016;2024-03-02T08:41:31;10.70;;;2.92;;
25359;SDS011;13311;51.386;0.016;2024-03-02T08:46:32;12.05;;;2.35;;
25359;SDS011;13311;51.386;0.016;2024-03-02T08:51:33;9.93;;;2.40;;
25359;SDS011;13311;51.386;0.016;2024-03-02T08:56:33;12.55;;;1.95;;
25359;SDS011;13311;51.386;0.016;2024-03-02T09:01:35;1.60;;;0.75;;
25359;SDS011;13311;51.386;0.016;2024-03-02T09:06:41;5.80;;;1.52;;
25359;SDS011;13311;51.386;0.016;2024-03-02T09:11:42;5.25;;;0.98;;
25359;SDS011;13311;51.386;0.016;2024-03-02T09:16:43;3.65;;;1.00;;
25359;SDS011;13311;51.386;0.016;2024-03-02T09:21:44;6.45;;;0.65;;
25359;SDS011;13311;51.386;0.016;2024-03-02T09:26:44;4.32;;;1.55;;
25359;SDS011;13311;51.386;0.016;2024-03-02T09:31:45;2.97;;;1.40;;
25359;SDS011;13311;51.386;0.016;2024-03-02T09:36:46;6.32;;;1.77;;
25359;SDS011;13311;51.386;0.016;2024-03-02T09:41:47;13.65;;;1.60;;
25359;SDS011;13311;51.386;0.016;2024-03-02T09:46:48;16.30;;;2.28;;
25359;SDS011;13311;51.386;0.016;2024-03-02T09:51:49;7.70;;;1.58;;
25359;SDS011;13311;51.386;0.016;2024-03-02T09:56:50;6.43;;;1.58;;
25359;SDS011;13311;51.386;0.016;2024-03-02T10:02:03;6.07;;;2.28;;
25359;SDS011;13311;51.386;0.016;2024-03-02T10:12:19;6.10;;;1.67;;
25359;SDS011;13311;51.386;0.016;2024-03-02T10:17:20;3.92;;;1.00;;
25359;SDS011;13311;51.386;0.016;2024-03-02T10:22:22;4.70;;;1.17;;
25359;SDS011;13311;51.386;0.016;2024-03-02T10:27:25;5.43;;;0.95;;
25359;SDS011;13311;51.386;0.016;2024-03-02T10:32:30;1.33;;;0.40;;
25359;SDS011;13311;51.386;0.016;2024-03-02T10:37:31;2.85;;;0.50;;
25359;SDS011;13311;51.386;0.016;2024-03-02T10:42:32;2.70;;;0.30;;
25359;SDS011;13311;51.386;0.016;2024-03-02T10:47:33;2.25;;;0.68;;
25359;SDS011;13311;51.386;0.016;2024-03-02T10:52:37;0.93;;;0.30;;
25359;SDS011;13311;51.386;0.016;2024-03-02T10:57:45;1.52;;;0.40;;
25359;SDS011;13311;51.386;0.016;2024-03-02T11:02:56;0.45;;;0.20;;
25359;SDS011;13311;51.386;0.016;2024-03-02T11:08:07;0.90;;;0.30;;
25359;SDS011;13311;51.386;0.016;2024-03-02T11:13:13;2.03;;;0.60;;
25359;SDS011;13311;51.386;0.016;2024-03-02T11:18:14;3.67;;;0.60;;
25359;SDS011;13311;51.386;0.016;2024-03-02T11:23:16;1.75;;;0.40;;
25359;SDS011;13311;51.386;0.016;2024-03-02T11:28:17;0.25;;;0.08;;
25359;SDS011;13311;51.386;0.016;2024-03-02T11:33:36;0.45;;;0.10;;
25359;SDS011;13311;51.386;0.016;2024-03-02T11:38:37;0.82;;;0.30;;
25359;SDS011;13311;51.386;0.016;2024-03-02T11:43:38;0.40;;;0.20;;
25359;SDS011;13311;51.386;0.016;2024-03-02T11:48:39;1.05;;;0.50;;
25359;SDS011;13311;51.386;0.016;2024-03-02T11:53:41;0.70;;;0.32;;
25359;SDS011;13311;51.386;0.016;2024-03-02T11:58:42;0.50;;;0.50;;
25359;SDS011;13311;51.386;0.016;2024-03-02T12:03:44;0.43;;;0.10;;
25359;SDS011;13311;51.386;0.016;2024-03-02T12:08:46;0.98;;;0.20;;
25359;SDS011;13311;51.386;0.016;2024-03-02T12:13:52;1.23;;;0.22;;
25359;SDS011;13311;51.386;0.016;2024-03-02T12:18:57;1.77;;;0.30;;
25359;SDS011;13311;51.386;0.016;2024-03-02T12:23:58;1.88;;;0.20;;
25359;SDS011;13311;51.386;0.016;2024-03-02T12:28:59;0.68;;;0.20;;
25359;SDS011;13311;51.386;0.016;2024-03-02T12:34:00;0.60;;;0.20;;
25359;SDS011;13311;51.386;0.016;2024-03-02T12:39:03;2.60;;;0.47;;
25359;SDS011;13311;51.386;0.016;2024-03-02T12:44:04;1.10;;;0.43;;
25359;SDS011;13311;51.386;0.016;2024-03-02T12:49:09;3.85;;;0.50;;
25359;SDS011;13311;51.386;0.016;2024-03-02T12:54:12;1.55;;;0.50;;
25359;SDS011;13311;51.386;0.016;2024-03-02T12:59:21;1.65;;;0.40;;
25359;SDS011;13311;51.386;0.016;2024-03-02T13:04:27;1.98;;;0.50;;
25359;SDS011;13311;51.386;0.016;2024-03-02T13:09:29;1.55;;;0.60;;
25359;SDS011;13311;51.386;0.016;2024-03-02T13:14:32;5.50;;;0.73;;
25359;SDS011;13311;51.386;0.016;2024-03-02T13:19:34;2.95;;;0.60;;
25359;SDS011;13311;51.386;0.016;2024-03-02T13:24:35;0.43;;;0.30;;
25359;SDS011;13311;51.386;0.016;2024-03-02T13:29:36;6.30;;;0.70;;
25359;SDS011;13311;51.386;0.016;2024-03-02T13:34:37;2.55;;;0.60;;
25359;SDS011;13311;51.386;0.016;2024-03-02T13:39:38;0.65;;;0.50;;
25359;SDS011;13311;51.386;0.016;2024-03-02T13:44:45;1.30;;;0.50;;
25359;SDS011;13311;51.386;0.016;2024-03-02T13:49:48;3.67;;;1.23;;
25359;SDS011;13311;51.386;0.016;2024-03-02T13:54:49;1.13;;;0.40;;
25359;SDS011;13311;51.386;0.016;2024-03-02T13:59:52;1.75;;;0.50;;
25359;SDS011;13311;51.386;0.016;2024-03-02T14:04:53;0.98;;;0.38;;
25359;SDS011;13311;51.386;0.016;2024-03-02T14:09:53;5.93;;;0.63;;
25359;SDS011;13311;51.386;0.016;2024-03-02T14:14:54;0.60;;;0.47;;
25359;SDS011;13311;51.386;0.016;2024-03-02T14:19:58;1.13;;;0.68;;
25359;SDS011;13311;51.386;0.016;2024-03-02T14:24:59;2.67;;;0.77;;
25359;SDS011;13311;51.386;0.016;2024-03-02T14:29:59;4.28;;;0.77;;
25359;SDS011;13311;51.386;0.016;2024-03-02T14:35:00;1.02;;;0.43;;
25359;SDS011;13311;51.386;0.016;2024-03-02T14:40:01;0.73;;;0.32;;
25359;SDS011;13311;51.386;0.016;2024-03-02T14:45:02;1.27;;;0.43;;
25359;SDS011;13311;51.386;0.016;2024-03-02T14:50:04;1.25;;;0.50;;
25359;SDS011;13311;51.386;0.016;2024-03-02T14:55:07;2.63;;;0.68;;
25359;SDS011;13311;51.386;0.016;2024-03-02T15:00:08;1.75;;;0.55;;
25359;SDS011;13311;51.386;0.016;2024-03-02T15:05:11;3.70;;;0.90;;
25359;SDS011;13311;51.386;0.016;2024-03-02T15:10:12;1.13;;;0.55;;
25359;SDS011;13311;51.386;0.016;2024-03-02T15:15:12;0.82;;;0.43;;
25359;SDS011;13311;51.386;0.016;2024-03-02T15:20:13;0.75;;;0.52;;
25359;SDS011;13311;51.386;0.016;2024-03-02T15:25:14;1.25;;;0.40;;
25359;SDS011;13311;51.386;0.016;2024-03-02T15:30:16;4.22;;;1.40;;
25359;SDS011;13311;51.386;0.016;2024-03-02T15:35:17;4.38;;;0.93;;
25359;SDS011;13311;51.386;0.016;2024-03-02T15:40:17;2.67;;;0.95;;
25359;SDS011;13311;51.386;0.016;2024-03-02T15:45:18;1.73;;;0.75;;
25359;SDS011;13311;51.386;0.016;2024-03-02T15:50:19;2.35;;;0.80;;
25359;SDS011;13311;51.386;0.016;2024-03-02T15:55:20;4.00;;;1.33;;
25359;SDS011;13311;51.386;0.016;2024-03-02T16:00:20;1.90;;;1.15;;
25359;SDS011;13311;51.386;0.016;2024-03-02T16:05:22;3.88;;;0.80;;
25359;SDS011;13311;51.386;0.016;2024-03-02T16:10:22;3.08;;;0.85;;
25359;SDS011;13311;51.386;0.016;2024-03-02T16:15:24;6.28;;;0.95;;
25359;SDS011;13311;51.386;0.016;2024-03-02T16:20:27;1.02;;;0.50;;
25359;SDS011;13311;51.386;0.016;2024-03-02T16:25:27;4.10;;;1.15;;
25359;SDS011;13311;51.386;0.016;2024-03-02T16:30:30;2.72;;;0.90;;
25359;SDS011;13311;51.386;0.016;2024-03-02T16:35:30;1.45;;;0.80;;
25359;SDS011;13311;51.386;0.016;2024-03-02T16:40:31;4.85;;;0.80;;
25359;SDS011;13311;51.386;0.016;2024-03-02T16:45:32;2.78;;;0.73;;
25359;SDS011;13311;51.386;0.016;2024-03-02T16:50:32;7.20;;;1.05;;
25359;SDS011;13311;51.386;0.016;2024-03-02T16:55:33;2.30;;;0.90;;
25359;SDS011;13311;51.386;0.016;2024-03-02T17:00:34;2.72;;;0.80;;
25359;SDS011;13311;51.386;0.016;2024-03-02T17:05:35;2.72;;;0.85;;
25359;SDS011;13311;51.386;0.016;2024-03-02T17:10:35;3.50;;;1.10;;
25359;SDS011;13311;51.386;0.016;2024-03-02T17:15:37;1.58;;;0.90;;
25359;SDS011;13311;51.386;0.016;2024-03-02T17:20:38;3.00;;;1.00;;
25359;SDS011;13311;51.386;0.016;2024-03-02T17:25:38;7.10;;;1.10;;
25359;SDS011;13311;51.386;0.016;2024-03-02T17:30:39;2.65;;;0.80;;
25359;SDS011;13311;51.386;0.016;2024-03-02T17:35:40;4.15;;;1.13;;
25359;SDS011;13311;51.386;0.016;2024-03-02T17:40:41;2.35;;;0.60;;
25359;SDS011;13311;51.386;0.016;2024-03-02T17:45:43;3.50;;;1.48;;
25359;SDS011;13311;51.386;0.016;2024-03-02T17:50:43;3.25;;;0.95;;
25359;SDS011;13311;51.386;0.016;2024-03-02T17:55:44;5.13;;;1.88;;
25359;SDS011;13311;51.386;0.016;2024-03-02T18:00:45;6.07;;;2.63;;
25359;SDS011;13311;51.386;0.016;2024-03-02T18:05:46;7.60;;;3.22;;
25359;SDS011;13311;51.386;0.016;2024-03-02T18:10:47;4.03;;;1.80;;
25359;SDS011;13311;51.386;0.016;2024-03-02T18:15:47;5.47;;;2.50;;
25359;SDS011;13311;51.386;0.016;2024-03-02T18:20:49;5.32;;;2.50;;
25359;SDS011;13311;51.386;0.016;2024-03-02T18:25:50;7.70;;;2.28;;
25359;SDS011;13311;51.386;0.016;2024-03-02T18:30:51;4.82;;;2.40;;
25359;SDS011;13311;51.386;0.016;2024-03-02T18:35:52;10.48;;;3.83;;
25359;SDS011;13311;51.386;0.016;2024-03-02T18:40:52;7.43;;;4.30;;
25359;SDS011;13311;51.386;0.016;2024-03-02T18:45:53;9.95;;;3.92;;
25359;SDS011;13311;51.386;0.016;2024-03-02T18:50:55;4.40;;;2.25;;
25359;SDS011;13311;51.386;0.016;2024-03-02T18:55:56;4.50;;;3.05;;
25359;SDS011;13311;51.386;0.016;2024-03-02T19:00:56;7.40;;;3.60;;
25359;SDS011;13311;51.386;0.016;2024-03-02T19:05:58;5.72;;;3.67;;
25359;SDS011;13311;51.386;0.016;2024-03-02T19:10:59;12.98;;;6.47;;
25359;SDS011;13311;51.386;0.016;2024-03-02T19:16:00;9.73;;;5.75;;
25359;SDS011;13311;51.386;0.016;2024-03-02T19:21:01;11.20;;;6.35;;
25359;SDS011;13311;51.386;0.016;2024-03-02T19:26:02;7.40;;;3.40;;
25359;SDS011;13311;51.386;0.016;2024-03-02T19:31:06;5.13;;;2.33;;
25359;SDS011;13311;51.386;0.016;2024-03-02T19:36:07;7.03;;;3.35;;
25359;SDS011;13311;51.386;0.016;2024-03-02T19:41:08;7.53;;;3.83;;
25359;SDS011;13311;51.386;0.016;2024-03-02T19:46:11;12.80;;;5.80;;
25359;SDS011;13311;51.386;0.016;2024-03-02T19:51:12;9.63;;;4.85;;
25359;SDS011;13311;51.386;0.016;2024-03-02T19:56:17;11.30;;;5.68;;
25359;SDS011;13311;51.386;0.016;2024-03-02T20:01:19;9.98;;;6.30;;
25359;SDS011;13311;51.386;0.016;2024-03-02T20:06:20;18.98;;;7.78;;
25359;SDS011;13311;51.386;0.016;2024-03-02T20:11:23;19.08;;;8.65;;
25359;SDS011;13311;51.386;0.016;2024-03-02T20:16:27;16.73;;;7.63;;
25359;SDS011;13311;51.386;0.016;2024-03-02T20:21:28;9.63;;;4.95;;
25359;SDS011;13311;51.386;0.016;2024-03-02T20:26:29;13.48;;;4.00;;
25359;SDS011;13311;51.386;0.016;2024-03-02T20:31:30;9.30;;;5.43;;
25359;SDS011;13311;51.386;0.016;2024-03-02T20:36:30;9.43;;;2.70;;
25359;SDS011;13311;51.386;0.016;2024-03-02T20:41:31;5.43;;;2.47;;
25359;SDS011;13311;51.386;0.016;2024-03-02T20:46:32;6.75;;;3.33;;
25359;SDS011;13311;51.386;0.016;2024-03-02T20:51:33;9.38;;;5.55;;
25359;SDS011;13311;51.386;0.016;2024-03-02T20:56:33;9.80;;;3.80;;
25359;SDS011;13311;51.386;0.016;2024-03-02T21:01:41;7.47;;;2.20;;
25359;SDS011;13311;51.386;0.016;2024-03-02T21:06:42;4.75;;;1.92;;
25359;SDS011;13311;51.386;0.016;2024-03-02T21:11:43;6.00;;;3.83;;
25359;SDS011;13311;51.386;0.016;2024-03-02T21:16:48;8.48;;;4.75;;
25359;SDS011;13311;51.386;0.016;2024-03-02T21:21:50;6.55;;;3.72;;
25359;SDS011;13311;51.386;0.016;2024-03-02T21:26:51;13.27;;;3.70;;
25359;SDS011;13311;51.386;0.016;2024-03-02T21:31:52;7.70;;;3.22;;
25359;SDS011;13311;51.386;0.016;2024-03-02T21:36:55;8.57;;;4.03;;
25359;SDS011;13311;51.386;0.016;2024-03-02T21:41:57;9.18;;;4.25;;
25359;SDS011;13311;51.386;0.016;2024-03-02T21:46:58;9.55;;;4.38;;
25359;SDS011;13311;51.386;0.016;2024-03-02T21:51:59;8.65;;;3.65;;
25359;SDS011;13311;51.386;0.016;2024-03-02T21:57:01;10.43;;;4.25;;
25359;SDS011;13311;51.386;0.016;2024-03-02T22:02:02;11.00;;;4.40;;
25359;SDS011;13311;51.386;0.016;2024-03-02T22:07:03;10.15;;;4.90;;
25359;SDS011;13311;51.386;0.016;2024-03-02T22:12:04;12.95;;;7.00;;
25359;SDS011;13311;51.386;0.016;2024-03-02T22:17:05;15.45;;;8.23;;
25359;SDS011;13311;51.386;0.016;2024-03-02T22:22:05;16.45;;;6.40;;
25359;SDS011;13311;51.386;0.016;2024-03-02T22:27:06;6.47;;;4.60;;
25359;SDS011;13311;51.386;0.016;2024-03-02T22:32:07;9.80;;;4.05;;
25359;SDS011;13311;51.386;0.016;2024-03-02T22:37:08;8.50;;;3.80;;
25359;SDS011;13311;51.386;0.016;2024-03-02T22:42:08;14.45;;;3.95;;
25359;SDS011;13311;51.386;0.016;2024-03-02T22:47:09;8.68;;;4.28;;
25359;SDS011;13311;51.386;0.016;2024-03-02T22:52:11;8.15;;;4.10;;
25359;SDS011;13311;51.386;0.016;2024-03-02T22:57:12;11.00;;;3.47;;
25359;SDS011;13311;51.386;0.016;2024-03-02T23:02:17;7.72;;;3.90;;
25359;SDS011;13311;51.386;0.016;2024-03-02T23:07:18;6.45;;;3.38;;
25359;SDS011;13311;51.386;0.016;2024-03-02T23:12:19;9.93;;;3.80;;
25359;SDS011;13311;51.386;0.016;2024-03-02T23:17:21;9.52;;;4.55;;
25359;SDS011;13311;51.386;0.016;2024-03-02T23:22:22;7.80;;;4.00;;
25359;SDS011;13311;51.386;0.016;2024-03-02T23:27:23;8.25;;;4.10;;
25359;SDS011;13311;51.386;0.016;2024-03-02T23:32:24;10.57;;;4.18;;
25359;SDS011;13311;51.386;0.016;2024-03-02T23:37:28;7.18;;;3.67;;
25359;SDS011;13311;51.386;0.016;2024-03-02T23:42:29;7.32;;;3.70;;
25359;SDS011;13311;51.386;0.016;2024-03-02T23:47:30;10.13;;;3.47;;
25359;SDS011;13311;51.386;0.016;2024-03-02T23:52:30;10.30;;;3.65;;
25359;SDS011;13311;51.386;0.016;2024-03-02T23:57:31;7.78;;;4.35;;
